Accueil
METAR-TAF:

METAR-TAF

Aéroports :

Aéroport Nikola-Tesla de Belgrade

Belgrade, Serbie

latitude: 44-49N, longitude: 020-17E, altitude: 96 m

Observation

Le bulletin a été fait il y a 20 minutes, à 10:30 UTC
Vent 4 kt de direction variable
Température 21°C
Humidité 30%
Pression 1015 hPa
Visibilité 10 km ou plus
pas de nuages en-dessous de 1500 mètres et pas de cumulonimbus.

METAR: LYBE 221030Z VRB04KT CAVOK 21/03 Q1015 NOSIG

Heure: 12:50 (10:50 UTC)

Prévision

Le bulletin a été fait il y a 5 heures et 50 minutes, à 05:00 UTC
Prévision valable du 22 à 06 UTC au 23 à 06 UTC
Vent 7 kt de sud/sud-est
Visibilité 10 km ou plus
pas de nuages en-dessous de 1500 mètres et pas de cumulonimbus.
Evoluant progressivement
du 22 à 16 UTC au 22 à 18 UTC
Vent 18 kt de sud/sud-est
Temporairement
du 23 à 03 UTC au 23 à 06 UTC
pluie

TAF: LYBE 220500Z 2206/2306 16007KT CAVOK TX23/2213Z TN06/2206Z BECMG 2216/2218 16018KT TEMPO 2303/2306 RA

Observations et prévisions météorologiques de plus de 4000 aéroports (messages METAR et TAF).

Les stations disponibles sont représentées par des disques jaunes et rouges sur la carte.

Passer la souris dessus pour voir le nom de la station.

Cliquer dessus pour voir les observations et prévisions météorologiques.

Pour changer de carte: cliquez sur les boutons verts avec une croix noire pour zoomer, sur le bouton vert avec un tiret pour effectuer un zoom arrière, ou sur les flèches vertes pour les cartes adjacentes.


METAR-TAF: